Time;durP1;ratioP1;P1;durP2;ratioP2;P2;SDS_P1;SDS_P2;PMS_P1;PMS_P2;Temp;Humidity;BMP_temperature;BMP_pressure;BME280_temperature;BME280_humidity;BME280_pressure;Samples;Min_cycle;Max_cycle;Signal;HPM_P1;HPM_P2
2023/12/02 00:01:18;;;;;;;0.10;0.10;;;4.50;99.90;;;;;;5023551;28;20050;-82
2023/12/02 00:03:43;;;;;;;0.20;0.20;;;4.40;99.90;;;;;;5024389;28;20022;-81
2023/12/02 00:06:09;;;;;;;0.10;0.10;;;4.40;99.90;;;;;;5022877;28;20430;-80
2023/12/02 00:08:35;;;;;;;0.20;0.20;;;4.40;99.90;;;;;;5022701;28;20515;-78
2023/12/02 00:11:01;;;;;;;0.10;0.10;;;4.50;99.90;;;;;;5013983;28;20026;-80
2023/12/02 00:13:27;;;;;;;0.10;0.10;;;4.50;99.90;;;;;;5021209;28;20061;-81
2023/12/02 00:15:52;;;;;;;0.10;0.10;;;4.50;99.90;;;;;;5018513;28;20030;-86
2023/12/02 00:18:19;;;;;;;0.20;0.20;;;4.50;99.90;;;;;;5024254;28;20471;-83
2023/12/02 00:20:44;;;;;;;0.10;0.10;;;4.30;99.90;;;;;;5017294;28;20411;-80
2023/12/02 00:23:10;;;;;;;0.10;0.10;;;4.40;99.90;;;;;;5024269;28;20025;-80
2023/12/02 00:25:36;;;;;;;0.10;0.10;;;4.40;99.90;;;;;;5023245;28;20658;-80
2023/12/02 00:28:01;;;;;;;0.10;0.10;;;4.20;99.90;;;;;;5022998;28;20357;-79
2023/12/02 00:30:27;;;;;;;0.10;0.10;;;4.30;99.90;;;;;;5021794;28;20064;-83
2023/12/02 00:32:53;;;;;;;0.10;0.10;;;4.40;99.90;;;;;;5023508;28;20462;-85
2023/12/02 00:35:19;;;;;;;0.10;0.10;;;4.50;99.90;;;;;;5023278;28;20033;-84
2023/12/02 00:37:44;;;;;;;1.23;0.70;;;4.40;99.90;;;;;;5023483;28;20024;-80
2023/12/02 00:40:10;;;;;;;0.20;0.20;;;4.70;99.90;;;;;;5023652;28;20037;-83
2023/12/02 00:42:36;;;;;;;0.10;0.10;;;4.50;99.90;;;;;;5022095;28;20037;-84
2023/12/02 00:45:02;;;;;;;1.45;0.55;;;4.60;99.90;;;;;;5021865;28;20029;-79
2023/12/02 00:47:27;;;;;;;0.65;0.65;;;4.60;99.90;;;;;;5018874;28;20029;-83
2023/12/02 00:49:53;;;;;;;0.10;0.10;;;4.60;99.90;;;;;;5023459;28;20072;-79
2023/12/02 00:52:19;;;;;;;0.10;0.10;;;4.60;99.90;;;;;;5024044;28;20059;-82
2023/12/02 00:54:44;;;;;;;0.10;0.10;;;4.50;99.90;;;;;;5024050;28;20037;-83
2023/12/02 00:57:10;;;;;;;0.10;0.10;;;4.50;99.90;;;;;;5024854;28;20033;-79
2023/12/02 00:59:36;;;;;;;1.60;1.55;;;4.50;99.90;;;;;;5024160;28;20440;-81
2023/12/02 01:02:01;;;;;;;7.97;2.38;;;4.50;99.90;;;;;;5024747;28;20041;-80
2023/12/02 01:04:27;;;;;;;0.75;0.75;;;4.40;99.90;;;;;;5023918;28;20029;-82
2023/12/02 01:06:53;;;;;;;0.65;0.65;;;4.50;99.90;;;;;;5024439;28;20539;-83
2023/12/02 01:09:18;;;;;;;0.10;0.10;;;4.50;99.90;;;;;;5024699;28;20028;-80
2023/12/02 01:11:44;;;;;;;0.10;0.10;;;4.50;99.90;;;;;;5024921;28;20032;-84
2023/12/02 01:14:10;;;;;;;0.10;0.10;;;4.70;99.90;;;;;;5018010;28;20029;-81
2023/12/02 01:16:35;;;;;;;0.10;0.10;;;4.70;99.90;;;;;;5024339;28;20029;-79
2023/12/02 01:19:01;;;;;;;0.10;0.10;;;4.60;99.90;;;;;;5023950;28;20040;-82
2023/12/02 01:21:27;;;;;;;0.88;0.88;;;4.70;99.90;;;;;;5023415;28;20029;-83
2023/12/02 01:23:52;;;;;;;2.47;2.28;;;4.50;99.90;;;;;;5023969;28;20037;-84
2023/12/02 01:26:18;;;;;;;0.20;0.20;;;4.70;99.90;;;;;;5023394;28;20075;-82
2023/12/02 01:28:44;;;;;;;0.10;0.10;;;4.70;99.90;;;;;;5021592;28;20042;-86
2023/12/02 01:31:09;;;;;;;0.10;0.10;;;4.80;99.90;;;;;;5022417;28;20064;-80
2023/12/02 01:33:35;;;;;;;0.10;0.10;;;4.80;99.90;;;;;;5024160;28;20543;-80
2023/12/02 01:36:01;;;;;;;0.35;0.35;;;4.80;99.90;;;;;;5023306;28;20029;-81
2023/12/02 01:38:26;;;;;;;0.10;0.10;;;4.80;99.90;;;;;;5022711;28;20034;-82
2023/12/02 01:40:53;;;;;;;0.10;0.10;;;4.80;99.90;;;;;;5023529;28;20030;-81
2023/12/02 01:43:25;;;;;;;0.88;0.80;;;4.80;99.90;;;;;;5023462;28;20060;-82
2023/12/02 01:45:50;;;;;;;0.10;0.10;;;4.80;99.90;;;;;;5021211;28;20042;-81
2023/12/02 01:48:18;;;;;;;0.10;0.10;;;4.80;99.90;;;;;;5023607;28;20036;-80
2023/12/02 01:50:44;;;;;;;0.10;0.10;;;4.80;99.90;;;;;;5022819;28;20038;-83
2023/12/02 01:53:10;;;;;;;0.10;0.10;;;4.70;99.90;;;;;;5020250;28;20030;-78
2023/12/02 01:55:35;;;;;;;0.10;0.10;;;4.70;99.90;;;;;;5019853;28;20448;-78
2023/12/02 01:58:02;;;;;;;0.10;0.10;;;4.70;99.90;;;;;;5023511;28;20029;-80
2023/12/02 02:00:28;;;;;;;0.40;0.40;;;4.70;99.90;;;;;;5023551;28;20053;-81
2023/12/02 02:02:53;;;;;;;1.17;1.17;;;4.70;99.90;;;;;;5023785;28;20068;-80
2023/12/02 02:05:19;;;;;;;0.10;0.10;;;4.60;99.90;;;;;;5023493;28;20395;-79
2023/12/02 02:07:45;;;;;;;0.10;0.10;;;4.70;99.90;;;;;;5023915;28;20400;-79
2023/12/02 02:10:10;;;;;;;0.45;0.45;;;4.70;99.90;;;;;;5021671;28;20087;-78
2023/12/02 02:12:36;;;;;;;0.10;0.10;;;4.70;99.90;;;;;;5023782;28;20036;-81
2023/12/02 02:15:02;;;;;;;0.10;0.10;;;4.70;99.90;;;;;;5023519;28;20029;-80
2023/12/02 02:17:28;;;;;;;0.47;0.47;;;4.70;99.90;;;;;;5023502;28;20025;-80
2023/12/02 02:19:53;;;;;;;0.65;0.65;;;4.80;99.90;;;;;;5023058;28;20029;-79
2023/12/02 02:22:19;;;;;;;0.10;0.10;;;4.60;99.90;;;;;;5022784;28;20061;-83
2023/12/02 02:24:44;;;;;;;0.17;0.17;;;4.60;99.90;;;;;;5023087;28;20096;-81
2023/12/02 02:27:10;;;;;;;0.90;0.90;;;4.60;99.90;;;;;;5022714;28;20096;-80
2023/12/02 02:29:36;;;;;;;0.10;0.10;;;4.50;99.90;;;;;;5020938;28;20061;-78
2023/12/02 02:32:02;;;;;;;0.10;0.10;;;4.40;99.90;;;;;;5022600;28;20709;-78
2023/12/02 02:34:28;;;;;;;0.20;0.20;;;4.60;99.90;;;;;;5022692;28;20033;-81
2023/12/02 02:36:53;;;;;;;0.20;0.20;;;4.60;99.90;;;;;;5022799;28;20079;-79
2023/12/02 02:39:19;;;;;;;0.10;0.10;;;4.60;99.90;;;;;;5022883;28;20023;-79
2023/12/02 02:41:45;;;;;;;1.02;0.95;;;4.60;99.90;;;;;;5023375;28;20040;-79
2023/12/02 02:44:11;;;;;;;0.10;0.10;;;4.60;99.90;;;;;;5023029;28;20118;-79
2023/12/02 02:46:36;;;;;;;0.10;0.10;;;4.50;99.90;;;;;;5021748;28;20507;-79
2023/12/02 02:49:02;;;;;;;0.10;0.10;;;4.60;99.90;;;;;;5017487;28;20040;-78
2023/12/02 02:51:28;;;;;;;0.10;0.10;;;4.50;99.90;;;;;;5022645;28;20036;-80
2023/12/02 02:53:54;;;;;;;0.20;0.20;;;4.60;99.90;;;;;;5022984;28;20029;-83
2023/12/02 02:56:20;;;;;;;0.13;0.13;;;4.50;99.90;;;;;;5022864;28;20455;-79
2023/12/02 02:58:45;;;;;;;0.10;0.10;;;4.40;99.90;;;;;;5021434;28;20041;-78
2023/12/02 03:01:11;;;;;;;0.15;0.15;;;4.50;99.90;;;;;;5022703;28;20029;-80
2023/12/02 03:03:39;;;;;;;0.10;0.10;;;4.40;99.90;;;;;;5022955;28;20999;-83
2023/12/02 03:06:05;;;;;;;0.10;0.10;;;4.30;99.90;;;;;;5024084;28;20045;-80
2023/12/02 03:08:31;;;;;;;0.10;0.10;;;4.20;99.90;;;;;;5029770;28;20109;-81
2023/12/02 03:10:57;;;;;;;0.10;0.10;;;4.20;99.90;;;;;;5030222;28;20136;-80
2023/12/02 03:13:22;;;;;;;0.10;0.10;;;4.20;99.90;;;;;;5028715;28;20025;-83
2023/12/02 03:15:48;;;;;;;0.10;0.10;;;4.10;99.90;;;;;;5025217;28;20025;-84
2023/12/02 03:18:14;;;;;;;0.20;0.20;;;4.10;99.90;;;;;;5026743;28;20559;-82
2023/12/02 03:20:39;;;;;;;0.10;0.10;;;4.10;99.90;;;;;;5025840;28;20037;-81
2023/12/02 03:23:05;;;;;;;0.88;0.88;;;4.10;99.90;;;;;;5020097;28;20033;-81
2023/12/02 03:25:31;;;;;;;0.20;0.20;;;4.10;99.90;;;;;;5016184;28;20033;-81
2023/12/02 03:27:57;;;;;;;0.65;0.65;;;3.90;99.90;;;;;;5014208;28;20037;-81
2023/12/02 03:30:23;;;;;;;0.10;0.10;;;3.80;99.90;;;;;;5016028;28;20049;-84
2023/12/02 03:32:49;;;;;;;0.10;0.10;;;3.80;99.90;;;;;;5024722;28;20076;-81
2023/12/02 03:35:15;;;;;;;0.10;0.10;;;3.80;99.90;;;;;;5025989;28;20499;-81
2023/12/02 03:37:41;;;;;;;0.10;0.10;;;3.60;99.90;;;;;;5026547;28;20029;-80
2023/12/02 03:40:08;;;;;;;0.13;0.13;;;3.40;99.90;;;;;;5025345;28;20060;-80
2023/12/02 03:42:33;;;;;;;;;;;3.30;99.90;;;;;;5026399;28;20277;-84
2023/12/02 03:44:59;;;;;;;0.10;0.10;;;3.40;99.90;;;;;;5027764;28;20393;-83
2023/12/02 03:47:25;;;;;;;0.10;0.10;;;3.50;99.90;;;;;;5026374;28;20122;-80
2023/12/02 03:49:51;;;;;;;0.10;0.10;;;3.60;99.90;;;;;;5025963;28;20033;-80
2023/12/02 03:52:16;;;;;;;0.10;0.10;;;3.50;99.90;;;;;;5024575;28;20484;-82
2023/12/02 03:54:42;;;;;;;0.10;0.10;;;3.50;99.90;;;;;;5026498;28;20048;-82
2023/12/02 03:57:08;;;;;;;0.30;0.30;;;3.40;99.90;;;;;;5026440;28;20029;-84
2023/12/02 03:59:33;;;;;;;0.10;0.10;;;3.60;99.90;;;;;;5026066;28;20114;-84
2023/12/02 04:01:59;;;;;;;0.50;0.50;;;3.60;99.90;;;;;;5026493;28;20041;-84
2023/12/02 04:04:25;;;;;;;0.10;0.10;;;3.40;99.90;;;;;;5025900;28;20096;-82
2023/12/02 04:06:51;;;;;;;0.10;0.10;;;3.40;99.90;;;;;;5025349;28;20026;-80
2023/12/02 04:09:17;;;;;;;0.15;0.15;;;3.40;99.90;;;;;;5024237;28;20033;-79
2023/12/02 04:11:46;;;;;;;7.93;1.55;;;3.40;99.90;;;;;;5030285;28;20049;-86
2023/12/02 04:14:12;;;;;;;1.00;0.80;;;3.50;99.90;;;;;;5025349;28;20379;-81
2023/12/02 04:16:42;;;;;;;0.10;0.10;;;3.60;99.90;;;;;;5025635;28;20025;-80
2023/12/02 04:19:10;;;;;;;0.10;0.10;;;3.50;99.90;;;;;;5021295;28;20040;-85
2023/12/02 04:21:40;;;;;;;0.10;0.10;;;3.50;99.90;;;;;;5024563;28;20039;-80
2023/12/02 04:24:06;;;;;;;0.10;0.10;;;3.40;99.90;;;;;;5025403;28;20519;-80
2023/12/02 04:26:32;;;;;;;0.25;0.25;;;3.60;99.90;;;;;;5025964;28;20029;-81
2023/12/02 04:28:57;;;;;;;0.10;0.10;;;3.50;99.90;;;;;;5024066;28;20388;-82
2023/12/02 04:31:23;;;;;;;0.10;0.10;;;3.40;99.90;;;;;;5028684;28;20029;-85
2023/12/02 04:33:49;;;;;;;0.10;0.10;;;3.60;99.90;;;;;;5027065;28;20037;-83
2023/12/02 04:36:14;;;;;;;0.20;0.20;;;3.60;99.90;;;;;;5024775;28;20119;-81
2023/12/02 04:38:41;;;;;;;0.10;0.10;;;3.60;99.90;;;;;;5024862;28;20485;-81
2023/12/02 04:41:07;;;;;;;0.10;0.10;;;3.70;99.90;;;;;;5024300;28;20496;-80
2023/12/02 04:43:33;;;;;;;0.10;0.10;;;3.80;99.90;;;;;;5025249;28;20082;-84
2023/12/02 04:45:58;;;;;;;0.10;0.10;;;3.80;99.90;;;;;;5024599;28;20033;-81
2023/12/02 04:48:24;;;;;;;0.20;0.20;;;3.80;99.90;;;;;;5024774;28;20026;-85
2023/12/02 04:50:50;;;;;;;0.10;0.10;;;3.80;99.90;;;;;;5022985;28;20124;-80
2023/12/02 04:53:16;;;;;;;0.10;0.10;;;3.80;99.90;;;;;;5024322;28;20101;-80
2023/12/02 04:55:41;;;;;;;0.10;0.10;;;3.60;99.90;;;;;;5024372;28;20041;-81
2023/12/02 04:58:07;;;;;;;0.10;0.10;;;3.70;99.90;;;;;;5024376;28;20217;-80
2023/12/02 05:00:33;;;;;;;0.10;0.10;;;3.60;99.90;;;;;;5024068;28;20030;-83
2023/12/02 05:02:59;;;;;;;0.10;0.10;;;3.40;99.90;;;;;;5024384;28;20401;-80
2023/12/02 05:05:26;;;;;;;0.10;0.10;;;3.10;99.90;;;;;;5023828;28;20022;-80
2023/12/02 05:07:52;;;;;;;0.73;0.73;;;3.10;99.90;;;;;;5024231;28;20026;-82
2023/12/02 05:10:17;;;;;;;0.10;0.10;;;2.80;99.90;;;;;;5023934;28;20032;-81
2023/12/02 05:12:43;;;;;;;0.10;0.10;;;2.70;99.90;;;;;;5023076;28;20066;-82
2023/12/02 05:15:09;;;;;;;0.10;0.10;;;2.70;99.90;;;;;;5023672;28;20086;-80
2023/12/02 05:17:35;;;;;;;0.10;0.10;;;2.80;99.90;;;;;;5024208;28;20480;-81
2023/12/02 05:20:01;;;;;;;0.10;0.10;;;2.60;99.90;;;;;;5023275;28;20029;-81
2023/12/02 05:22:26;;;;;;;0.10;0.10;;;2.60;99.90;;;;;;5023326;28;20624;-81
2023/12/02 05:24:52;;;;;;;0.10;0.10;;;2.40;99.90;;;;;;5023705;28;20103;-81
2023/12/02 05:27:18;;;;;;;0.10;0.10;;;2.30;99.90;;;;;;5020589;28;20029;-84
2023/12/02 05:29:43;;;;;;;0.20;0.20;;;2.30;99.90;;;;;;5020389;28;20056;-80
2023/12/02 05:32:09;;;;;;;0.10;0.10;;;2.40;99.90;;;;;;5024204;28;20448;-84
2023/12/02 05:34:35;;;;;;;0.10;0.10;;;2.40;99.90;;;;;;5023494;28;20061;-81
2023/12/02 05:37:00;;;;;;;0.10;0.10;;;2.30;99.90;;;;;;5024290;28;20075;-83
2023/12/02 05:39:26;;;;;;;1.77;1.35;;;2.20;99.90;;;;;;5022440;28;20880;-81
2023/12/02 05:41:52;;;;;;;0.10;0.10;;;2.20;99.90;;;;;;5025278;28;20029;-82
2023/12/02 05:44:19;;;;;;;0.10;0.10;;;2.10;99.90;;;;;;5023718;28;20079;-83
2023/12/02 05:46:44;;;;;;;0.45;0.45;;;2.20;99.90;;;;;;5023711;28;20056;-83
2023/12/02 05:49:10;;;;;;;0.20;0.20;;;2.20;99.90;;;;;;5023687;28;20065;-81
2023/12/02 05:51:39;;;;;;;0.10;0.10;;;2.30;99.90;;;;;;5022501;28;20025;-79
2023/12/02 05:54:08;;;;;;;0.10;0.10;;;2.20;99.90;;;;;;5023749;28;20047;-80
2023/12/02 05:56:34;;;;;;;0.13;0.13;;;2.40;99.90;;;;;;5024564;28;20025;-83
2023/12/02 05:59:00;;;;;;;0.10;0.10;;;2.20;99.90;;;;;;5024715;28;20773;-80
2023/12/02 06:01:25;;;;;;;0.30;0.30;;;2.10;99.90;;;;;;5022235;28;20040;-81
2023/12/02 06:03:51;;;;;;;0.20;0.20;;;1.90;99.90;;;;;;5024594;28;20025;-82
2023/12/02 06:06:17;;;;;;;0.10;0.10;;;1.80;99.90;;;;;;5023508;28;20029;-81
2023/12/02 06:08:43;;;;;;;0.10;0.10;;;1.70;99.90;;;;;;5024043;28;20026;-84
2023/12/02 06:11:09;;;;;;;0.10;0.10;;;1.80;99.90;;;;;;5023523;28;20794;-82
2023/12/02 06:13:34;;;;;;;0.10;0.10;;;1.70;99.90;;;;;;5017628;28;20108;-85
2023/12/02 06:16:00;;;;;;;0.10;0.10;;;1.70;99.90;;;;;;5021880;28;20029;-81
2023/12/02 06:18:26;;;;;;;0.20;0.20;;;1.60;99.90;;;;;;5023377;28;20139;-81
2023/12/02 06:20:52;;;;;;;0.38;0.38;;;1.60;99.90;;;;;;5020554;28;20663;-81
2023/12/02 06:23:18;;;;;;;0.10;0.10;;;1.70;99.90;;;;;;5022843;28;20495;-83
2023/12/02 06:25:43;;;;;;;0.10;0.10;;;1.50;99.90;;;;;;5022729;28;20026;-81
2023/12/02 06:28:09;;;;;;;0.10;0.10;;;1.60;99.90;;;;;;5014120;28;20104;-82
2023/12/02 06:30:35;;;;;;;0.10;0.10;;;1.50;99.90;;;;;;5023213;28;20846;-81
2023/12/02 06:33:00;;;;;;;0.10;0.10;;;1.50;99.90;;;;;;5021684;28;20068;-83
2023/12/02 06:35:26;;;;;;;0.10;0.10;;;1.60;99.90;;;;;;5022772;28;20055;-77
2023/12/02 06:37:52;;;;;;;0.17;0.17;;;1.60;99.90;;;;;;5023622;28;20097;-78
2023/12/02 06:40:18;;;;;;;0.00;0.00;;;1.50;99.90;;;;;;5023150;28;20033;-79
2023/12/02 06:42:44;;;;;;;0.20;0.20;;;1.30;99.90;;;;;;5025289;28;20107;-79
2023/12/02 06:45:10;;;;;;;0.10;0.10;;;1.50;99.90;;;;;;5026821;28;20021;-78
2023/12/02 06:47:36;;;;;;;2.30;1.10;;;1.40;99.90;;;;;;5027077;28;20099;-77
2023/12/02 06:50:03;;;;;;;3.42;0.80;;;1.50;99.90;;;;;;5026725;28;20480;-79
2023/12/02 06:52:29;;;;;;;0.13;0.13;;;1.30;99.90;;;;;;5026791;28;20109;-81
2023/12/02 06:54:55;;;;;;;0.10;0.10;;;1.40;99.90;;;;;;5026582;28;20117;-79
2023/12/02 06:57:20;;;;;;;0.20;0.20;;;1.30;99.90;;;;;;5024696;28;20067;-78
2023/12/02 06:59:46;;;;;;;0.10;0.10;;;1.40;99.90;;;;;;5023493;28;20034;-78
2023/12/02 07:02:12;;;;;;;0.10;0.10;;;1.40;99.90;;;;;;5012911;28;20100;-79
2023/12/02 07:04:38;;;;;;;0.00;0.00;;;1.20;99.90;;;;;;5018443;28;20582;-79
2023/12/02 07:07:04;;;;;;;0.10;0.10;;;1.20;99.90;;;;;;5013960;28;20033;-78
2023/12/02 07:09:30;;;;;;;0.00;0.00;;;1.20;99.90;;;;;;5023828;28;20030;-78
2023/12/02 07:11:55;;;;;;;0.10;0.10;;;1.20;99.90;;;;;;5023670;28;20108;-79
2023/12/02 07:14:21;;;;;;;0.10;0.10;;;1.10;99.90;;;;;;5025145;28;20568;-80
2023/12/02 07:16:46;;;;;;;1.48;1.45;;;1.10;99.90;;;;;;5025900;28;20030;-78
2023/12/02 07:19:12;;;;;;;2.50;1.30;;;1.10;99.90;;;;;;5025001;28;20142;-77
2023/12/02 07:21:38;;;;;;;0.10;0.10;;;1.10;99.90;;;;;;5025868;28;20037;-80
2023/12/02 07:24:04;;;;;;;6.57;4.47;;;1.30;99.90;;;;;;5025895;28;20029;-78
2023/12/02 07:26:30;;;;;;;0.20;0.20;;;1.30;99.90;;;;;;5022800;28;20447;-78
2023/12/02 07:28:55;;;;;;;0.10;0.10;;;1.40;99.90;;;;;;5023377;28;20037;-78
2023/12/02 07:31:21;;;;;;;0.10;0.10;;;1.20;99.90;;;;;;5026505;28;20025;-79
2023/12/02 07:33:46;;;;;;;0.20;0.20;;;1.20;99.90;;;;;;5013901;28;20036;-77
2023/12/02 07:36:12;;;;;;;0.10;0.10;;;1.20;99.90;;;;;;5013646;28;20559;-77
2023/12/02 07:38:40;;;;;;;1.13;1.08;;;1.20;99.90;;;;;;5012992;28;20048;-80
2023/12/02 07:41:07;;;;;;;0.10;0.10;;;1.30;99.90;;;;;;5020462;28;20105;-78
2023/12/02 07:43:33;;;;;;;0.08;0.08;;;1.20;99.90;;;;;;5025060;28;20128;-81
2023/12/02 07:45:59;;;;;;;0.10;0.10;;;1.30;99.90;;;;;;5025201;28;20075;-79
2023/12/02 07:48:24;;;;;;;0.10;0.10;;;1.60;99.90;;;;;;5025376;28;20059;-81
2023/12/02 07:50:50;;;;;;;0.10;0.10;;;1.60;99.90;;;;;;5024659;28;20033;-79
2023/12/02 07:53:16;;;;;;;0.10;0.10;;;2.30;99.90;;;;;;5024433;28;20099;-82
2023/12/02 07:55:41;;;;;;;0.10;0.10;;;2.40;99.90;;;;;;5022839;28;20025;-80
2023/12/02 07:58:07;;;;;;;0.10;0.10;;;2.70;99.90;;;;;;5024805;28;20600;-80
2023/12/02 08:00:33;;;;;;;0.10;0.10;;;2.70;99.90;;;;;;5018359;28;20037;-83
2023/12/02 08:02:58;;;;;;;0.10;0.10;;;2.70;99.90;;;;;;5023345;28;20022;-81
2023/12/02 08:05:24;;;;;;;0.10;0.10;;;2.90;99.90;;;;;;5013404;28;20053;-81
2023/12/02 08:07:51;;;;;;;0.35;0.35;;;3.10;99.90;;;;;;5018003;28;20025;-80
2023/12/02 08:10:17;;;;;;;0.20;0.20;;;3.00;99.90;;;;;;5020936;28;20088;-82
2023/12/02 08:12:43;;;;;;;0.65;0.65;;;3.10;99.90;;;;;;5024453;28;20022;-82
2023/12/02 08:15:09;;;;;;;0.70;0.70;;;3.20;99.90;;;;;;5019107;28;20036;-82
2023/12/02 08:17:35;;;;;;;0.17;0.17;;;3.10;99.90;;;;;;5021247;28;20411;-83
2023/12/02 08:20:05;;;;;;;0.85;0.85;;;3.30;99.90;;;;;;5019416;28;20029;-82
2023/12/02 08:22:31;;;;;;;0.10;0.10;;;3.60;99.90;;;;;;5015118;28;20091;-83
2023/12/02 08:24:57;;;;;;;0.10;0.10;;;3.70;99.90;;;;;;5011778;28;20022;-81
2023/12/02 08:27:23;;;;;;;0.10;0.10;;;3.70;99.90;;;;;;5015546;28;20040;-83
2023/12/02 08:29:49;;;;;;;0.10;0.10;;;3.50;99.90;;;;;;5022279;28;20041;-81
2023/12/02 08:32:14;;;;;;;0.55;0.55;;;3.90;99.90;;;;;;5022384;28;20108;-83
2023/12/02 08:34:40;;;;;;;0.10;0.10;;;4.00;99.90;;;;;;5023988;28;20029;-81
2023/12/02 08:37:06;;;;;;;0.10;0.10;;;4.20;99.90;;;;;;5024107;28;20449;-82
2023/12/02 08:39:32;;;;;;;0.10;0.10;;;4.40;99.90;;;;;;5022341;28;20036;-81
2023/12/02 08:41:58;;;;;;;0.55;0.55;;;4.60;99.90;;;;;;5023589;28;20515;-81
2023/12/02 08:44:24;;;;;;;0.17;0.17;;;4.70;99.90;;;;;;5020904;28;20033;-82
2023/12/02 08:46:50;;;;;;;0.10;0.10;;;4.60;99.90;;;;;;5024274;28;20022;-81
2023/12/02 08:49:16;;;;;;;7.55;2.95;;;4.50;99.90;;;;;;5021735;28;21054;-81
2023/12/02 08:51:42;;;;;;;0.10;0.10;;;4.50;99.90;;;;;;5022925;28;20033;-81
2023/12/02 08:54:07;;;;;;;0.10;0.10;;;4.10;99.90;;;;;;5022790;28;20032;-81
2023/12/02 08:56:33;;;;;;;0.15;0.15;;;4.30;99.90;;;;;;5024219;28;20108;-82
2023/12/02 08:58:59;;;;;;;0.10;0.10;;;4.50;99.90;;;;;;5023019;28;20108;-81
2023/12/02 09:01:25;;;;;;;0.10;0.10;;;4.90;99.30;;;;;;5022559;28;20102;-81
2023/12/02 09:03:51;;;;;;;0.10;0.10;;;5.10;99.80;;;;;;5021612;28;20771;-83
2023/12/02 09:06:17;;;;;;;0.10;0.10;;;5.10;98.60;;;;;;5013339;28;20104;-82
2023/12/02 09:08:43;;;;;;;0.10;0.10;;;4.70;97.60;;;;;;5014582;28;20033;-83
2023/12/02 09:11:08;;;;;;;0.20;0.20;;;5.00;97.40;;;;;;5022240;28;20828;-82
2023/12/02 09:13:41;;;;;;;0.10;0.10;;;5.30;97.40;;;;;;5021842;28;20496;-84
2023/12/02 09:16:26;;;;;;;0.10;0.10;;;5.20;97.10;;;;;;5015226;28;20028;-82
2023/12/02 09:18:52;;;;;;;0.40;0.40;;;5.40;97.20;;;;;;5018916;28;20029;-83
2023/12/02 09:21:21;;;;;;;0.10;0.10;;;5.30;96.20;;;;;;5024612;28;20102;-82
2023/12/02 09:23:51;;;;;;;0.10;0.10;;;5.40;96.60;;;;;;5022232;28;20029;-84
2023/12/02 09:26:29;;;;;;;0.10;0.10;;;5.40;96.40;;;;;;5022935;28;20105;-82
2023/12/02 09:28:55;;;;;;;0.38;0.38;;;5.50;96.10;;;;;;5017605;28;20037;-84
2023/12/02 09:31:22;;;;;;;0.10;0.10;;;5.60;96.40;;;;;;5023805;28;20096;-82
2023/12/02 09:33:56;;;;;;;2.33;1.10;;;5.50;95.80;;;;;;5023423;28;20586;-84
2023/12/02 09:36:39;;;;;;;1.10;1.10;;;5.10;96.10;;;;;;5024126;28;20480;-82
2023/12/02 09:39:11;;;;;;;0.20;0.20;;;5.30;96.10;;;;;;5022657;28;20053;-82
2023/12/02 09:41:45;;;;;;;0.10;0.10;;;5.70;95.60;;;;;;5023947;28;20022;-82
2023/12/02 09:44:13;;;;;;;0.10;0.10;;;5.40;95.80;;;;;;5017885;28;20091;-82
2023/12/02 09:46:48;;;;;;;0.10;0.10;;;5.10;95.60;;;;;;5018394;28;20032;-84
2023/12/02 09:49:35;;;;;;;4.75;1.15;;;5.20;95.50;;;;;;5023534;28;20053;-82
2023/12/02 09:52:26;;;;;;;0.10;0.10;;;5.40;95.00;;;;;;5024079;28;20026;-82
2023/12/02 09:55:04;;;;;;;0.10;0.10;;;5.60;94.70;;;;;;5017345;28;20046;-82
2023/12/02 09:57:51;;;;;;;0.10;0.10;;;5.40;94.50;;;;;;5023617;28;20029;-82
2023/12/02 10:00:39;;;;;;;0.30;0.30;;;5.20;94.40;;;;;;5022702;28;20030;-84
2023/12/02 10:03:16;;;;;;;0.30;0.30;;;4.70;93.80;;;;;;5022342;28;20053;-85
2023/12/02 10:06:04;;;;;;;0.10;0.10;;;4.50;94.60;;;;;;5022745;28;20029;-83
2023/12/02 10:08:39;;;;;;;0.93;0.57;;;4.20;94.60;;;;;;5022037;28;20028;-82
2023/12/02 10:11:10;;;;;;;0.20;0.20;;;4.20;95.60;;;;;;5023140;28;20033;-84
2023/12/02 10:13:49;;;;;;;0.10;0.10;;;4.80;94.10;;;;;;5023365;28;20056;-82
2023/12/02 10:16:18;;;;;;;0.65;0.65;;;5.00;93.40;;;;;;5022845;28;20519;-84
2023/12/02 10:18:55;;;;;;;0.43;0.43;;;4.90;92.80;;;;;;5023629;28;20030;-82
2023/12/02 10:21:21;;;;;;;0.13;0.13;;;5.40;93.00;;;;;;5021247;28;20033;-83
2023/12/02 10:23:50;;;;;;;0.93;0.93;;;5.20;93.30;;;;;;5023125;28;20623;-83
2023/12/02 10:26:23;;;;;;;0.35;0.35;;;5.20;92.90;;;;;;5020278;28;20029;-82
2023/12/02 10:29:08;;;;;;;0.10;0.10;;;5.30;92.60;;;;;;5022372;28;20037;-82
2023/12/02 10:31:41;;;;;;;0.10;0.10;;;4.70;92.40;;;;;;5023259;28;20030;-82
2023/12/02 10:34:20;;;;;;;0.10;0.10;;;4.80;92.70;;;;;;5019644;28;20132;-82
2023/12/02 10:36:50;;;;;;;0.10;0.10;;;5.20;92.50;;;;;;5022655;28;20025;-81
2023/12/02 10:39:35;;;;;;;0.10;0.10;;;5.20;92.30;;;;;;5022563;28;20500;-82
2023/12/02 10:42:02;;;;;;;0.05;0.05;;;5.40;92.70;;;;;;5022838;28;20022;-81
2023/12/02 10:44:32;;;;;;;0.15;0.15;;;5.40;91.30;;;;;;5023178;28;20053;-82
2023/12/02 10:46:59;;;;;;;0.20;0.20;;;5.90;92.40;;;;;;5021799;28;20064;-82
2023/12/02 10:49:30;;;;;;;0.10;0.10;;;6.00;90.60;;;;;;5022843;28;20037;-83
2023/12/02 10:51:58;;;;;;;0.10;0.10;;;6.00;91.00;;;;;;5022917;28;20017;-82
2023/12/02 10:54:29;;;;;;;0.10;0.10;;;6.20;90.30;;;;;;5022706;28;20037;-83
2023/12/02 10:57:06;;;;;;;0.10;0.10;;;6.60;90.40;;;;;;5022644;28;20017;-82
2023/12/02 10:59:39;;;;;;;0.10;0.10;;;7.00;88.30;;;;;;5030143;28;20567;-82
2023/12/02 11:02:23;;;;;;;0.40;0.40;;;7.30;86.60;;;;;;5021486;28;20127;-84
2023/12/02 11:05:03;;;;;;;0.10;0.10;;;6.60;82.30;;;;;;5020760;28;20021;-82
2023/12/02 11:07:32;;;;;;;0.43;0.43;;;6.40;85.70;;;;;;5016094;28;20025;-82
2023/12/02 11:10:03;;;;;;;0.10;0.10;;;6.30;85.50;;;;;;5022460;28;20401;-83
2023/12/02 11:12:33;;;;;;;0.10;0.10;;;6.00;83.30;;;;;;5023013;28;20029;-82
2023/12/02 11:15:04;;;;;;;0.30;0.30;;;5.70;82.80;;;;;;5022860;28;20467;-82
2023/12/02 11:17:46;;;;;;;0.10;0.10;;;5.50;84.00;;;;;;5023123;28;20366;-82
2023/12/02 11:20:57;;;;;;;0.10;0.10;;;5.70;86.60;;;;;;5017423;28;20052;-82
2023/12/02 11:23:53;;;;;;;0.10;0.10;;;5.70;85.50;;;;;;5011464;28;20080;-82
2023/12/02 11:26:32;;;;;;;0.10;0.10;;;5.90;85.30;;;;;;5019682;28;20029;-82
2023/12/02 11:29:19;;;;;;;0.93;0.47;;;5.70;85.10;;;;;;5024931;28;20156;-83
2023/12/02 11:32:03;;;;;;;;;;;6.30;86.80;;;;;;5022463;28;20101;-83
2023/12/02 11:34:53;;;;;;;0.10;0.10;;;5.90;84.60;;;;;;5022877;28;19912;-82
2023/12/02 11:37:31;;;;;;;0.10;0.10;;;5.80;84.10;;;;;;5026496;28;20033;-81
2023/12/02 11:40:21;;;;;;;0.10;0.10;;;5.60;83.70;;;;;;5021879;28;20868;-82
2023/12/02 11:43:05;;;;;;;0.10;0.10;;;5.60;84.60;;;;;;5023918;28;20034;-82
2023/12/02 11:45:38;;;;;;;0.10;0.10;;;5.30;84.40;;;;;;5026291;28;20028;-83
2023/12/02 11:48:18;;;;;;;0.40;0.40;;;5.90;85.70;;;;;;5020074;28;20670;-84
2023/12/02 11:51:22;;;;;;;0.10;0.10;;;6.10;86.10;;;;;;5021374;28;20758;-83
2023/12/02 11:54:15;;;;;;;0.10;0.10;;;5.90;84.40;;;;;;5018002;28;20044;-83
2023/12/02 11:57:05;;;;;;;0.10;0.10;;;6.00;84.50;;;;;;5023782;28;20324;-81
2023/12/02 12:00:01;;;;;;;1.35;1.08;;;5.80;85.50;;;;;;5025621;28;20025;-81
2023/12/02 12:02:44;;;;;;;0.10;0.10;;;5.80;86.40;;;;;;5012527;28;20788;-81
2023/12/02 12:05:30;;;;;;;0.47;0.47;;;6.00;85.70;;;;;;5024506;28;20037;-81
2023/12/02 12:08:05;;;;;;;0.32;0.32;;;5.80;85.10;;;;;;5020879;28;20021;-81
2023/12/02 12:10:37;;;;;;;1.58;1.27;;;5.70;84.30;;;;;;5025764;28;20034;-83
2023/12/02 12:13:05;;;;;;;0.10;0.10;;;5.80;84.30;;;;;;5025466;28;20037;-84
2023/12/02 12:15:32;;;;;;;0.10;0.10;;;5.40;84.40;;;;;;5024998;28;20026;-82
2023/12/02 12:17:58;;;;;;;0.10;0.10;;;5.30;83.20;;;;;;5025137;28;20018;-82
2023/12/02 12:20:27;;;;;;;0.20;0.20;;;5.40;84.00;;;;;;5024911;28;20045;-81
2023/12/02 12:22:53;;;;;;;0.30;0.30;;;5.40;85.50;;;;;;5025444;28;20377;-84
2023/12/02 12:25:19;;;;;;;0.10;0.10;;;5.30;84.60;;;;;;5025147;28;20437;-81
2023/12/02 12:27:45;;;;;;;0.10;0.10;;;5.60;83.20;;;;;;5025058;28;20504;-82
2023/12/02 12:30:11;;;;;;;0.10;0.10;;;5.70;82.70;;;;;;5024467;28;20065;-81
2023/12/02 12:32:38;;;;;;;0.10;0.10;;;5.40;82.50;;;;;;5024904;28;20382;-81
2023/12/02 12:35:16;;;;;;;0.10;0.10;;;5.60;82.70;;;;;;5026056;28;20029;-82
2023/12/02 12:37:42;;;;;;;0.10;0.10;;;5.70;83.60;;;;;;5021504;28;20025;-81
2023/12/02 12:40:14;;;;;;;0.10;0.10;;;5.20;83.70;;;;;;5024970;28;20083;-84
2023/12/02 12:42:50;;;;;;;0.38;0.38;;;5.30;84.00;;;;;;5025250;28;20117;-80
2023/12/02 12:45:16;;;;;;;0.08;0.08;;;5.60;82.90;;;;;;5025088;28;20025;-81
2023/12/02 12:47:42;;;;;;;0.40;0.40;;;5.70;84.50;;;;;;5025402;28;20017;-81
2023/12/02 12:50:14;;;;;;;0.15;0.15;;;6.10;86.30;;;;;;5023171;28;20083;-84
2023/12/02 12:52:47;;;;;;;3.83;1.10;;;6.30;83.50;;;;;;5025167;28;20092;-82
2023/12/02 12:55:17;;;;;;;0.10;0.10;;;6.30;82.70;;;;;;5025079;28;20095;-81
2023/12/02 12:57:48;;;;;;;0.00;0.00;;;6.10;79.70;;;;;;5024843;28;20025;-81
2023/12/02 13:00:16;;;;;;;0.10;0.10;;;6.00;83.30;;;;;;5024492;28;20068;-82
2023/12/02 13:03:19;;;;;;;0.20;0.20;;;5.90;82.00;;;;;;5025165;28;20031;-82
2023/12/02 13:05:51;;;;;;;0.10;0.10;;;6.30;82.60;;;;;;5022954;28;20080;-81